Pagrindinis puslapis
METAR-TAF:

METAR-TAF

Oro uostai :

Cayo Coco, Kuba

platuma: 22-27-40N, ilguma: 078-19-42W, Aukštis: 4 m

Dabartinis oras

Ataskaita buvo paskelbta 40 minutes, ne 20:50 UTC
Vėjas 12 kt iš Rytų
Temperatūra 29°C
Drėgmė 70%
Slėgis 1016 hPa
Matomumas: 9000 m
Mažai debesys ne aukštis 2000 ft

METAR: MUCC 262050Z 08012KT 9000 FEW020 29/23 Q1016

Laikas: 17:30 (21:30 UTC)

Prognozė

Ataskaita buvo paskelbta 4 valandos ir 30 minutes, ne 17:00 UTC
Prognozė galioja nuo 26 metu 18 UTC su 27 metu 18 UTC
Vėjas 12 kt iš Rytų
Matomumas: 9000 m
Išsisklaidę debesys ne aukštis 2000 ft
Tapsmas
nuo 27 metu 03 UTC su 27 metu 05 UTC
Vėjas 3 kt nuo kintamojo kryptimis
Tapsmas
nuo 27 metu 15 UTC su 27 metu 17 UTC
Vėjas 12 kt iš Rytų

TAF: MUCC 261700Z 2618/2718 09012KT 9000 SCT020 BECMG 2703/2705 VRB03KT BECMG 2715/2717 08012KT

Orai ataskaitas ir orų prognozės (METAR, TAF).

turimą stotys yra geltonos ir raudonos taškus žemėlapyje.

Perkelti pele per norėdami pamatyti stoties vardą.

Tada spustelėkite, norėdami matyti oro stebėjimo ir prognozės.

Norėdami pakeisti žemėlapį: spustelėkite ant žalios mygtukų su juodo kryžiaus žemyn,; žalią mygtuką su brūkšneliu, jei norite nutolinti; arba žalių rodyklių gretimoms žemėlapius.


METAR-TAF: